Time;durP1;ratioP1;P1;durP2;ratioP2;P2;SDS_P1;SDS_P2;PMS_P1;PMS_P2;Temp;Humidity;BMP_temperature;BMP_pressure;BME280_temperature;BME280_humidity;BME280_pressure;Samples;Min_cycle;Max_cycle;Signal;HPM_P1;HPM_P2
2022/08/17 00:01:16;;;;;;;6.15;4.15;;;20.90;72.90;;;20.09;55.90;96731.56;4990628;28;20407;-75
2022/08/17 00:03:45;;;;;;;4.78;3.58;;;20.80;73.10;;;20.08;55.59;96732.66;4991859;28;20409;-76
2022/08/17 00:06:14;;;;;;;5.32;4.18;;;20.80;73.20;;;20.09;55.56;96728.88;4994219;28;20896;-75
2022/08/17 00:08:43;;;;;;;5.47;4.07;;;20.80;72.90;;;20.11;55.43;96726.66;4994156;28;20406;-76
2022/08/17 00:11:15;;;;;;;6.20;3.90;;;20.80;72.90;;;20.05;55.88;96726.06;4994212;28;20410;-75
2022/08/17 00:13:44;;;;;;;6.05;3.95;;;20.80;73.20;;;20.15;55.12;96727.56;4993575;28;20438;-75
2022/08/17 00:16:16;;;;;;;4.22;3.30;;;20.80;72.60;;;20.04;55.43;96723.69;4993994;28;20419;-76
2022/08/17 00:18:42;;;;;;;8.20;4.07;;;20.70;72.80;;;20.01;55.58;96727.03;4993822;28;20783;-75
2022/08/17 00:21:10;;;;;;;5.32;3.88;;;20.70;72.90;;;19.98;55.70;96725.03;4994063;28;20407;-76
2022/08/17 00:23:37;;;;;;;6.13;3.55;;;20.70;73.00;;;19.97;55.76;96726.91;4993038;28;20437;-74
2022/08/17 00:26:03;;;;;;;6.72;3.95;;;20.70;73.20;;;20.03;55.28;96716.75;4993930;28;20465;-76
2022/08/17 00:28:31;;;;;;;10.57;3.70;;;20.70;72.70;;;20.03;55.35;96712.16;4993790;28;20402;-75
2022/08/17 00:30:58;;;;;;;4.43;3.50;;;20.70;72.80;;;20.04;55.25;96716.44;4993623;28;20413;-75
2022/08/17 00:33:28;;;;;;;3.90;3.50;;;20.70;72.70;;;19.96;55.61;96711.13;4993233;28;20402;-76
2022/08/17 00:35:56;;;;;;;4.60;3.70;;;20.70;73.10;;;19.88;55.98;96711.97;4993675;28;20410;-76
2022/08/17 00:38:23;;;;;;;5.28;3.58;;;20.60;73.50;;;19.95;55.65;96709.53;4993406;28;20928;-76
2022/08/17 00:40:53;;;;;;;5.43;3.65;;;20.60;73.40;;;19.83;56.14;96718.34;4993631;28;20423;-76
2022/08/17 00:43:26;;;;;;;6.40;3.80;;;20.60;73.70;;;19.81;56.16;96720.53;4992956;28;20432;-76
2022/08/17 00:45:54;;;;;;;6.95;3.70;;;20.50;73.80;;;19.84;55.70;96719.91;4993441;28;20402;-75
2022/08/17 00:48:20;;;;;;;6.72;3.50;;;20.50;73.30;;;19.73;56.30;96721.38;4993406;28;20409;-76
2022/08/17 00:50:57;;;;;;;7.22;4.00;;;20.50;73.90;;;19.75;56.08;96716.50;4993606;28;20402;-76
2022/08/17 00:53:23;;;;;;;6.28;3.80;;;20.40;73.80;;;19.68;56.46;96711.63;4993099;28;20730;-76
2022/08/17 00:55:49;;;;;;;8.02;3.72;;;20.50;75.00;;;19.69;56.66;96707.84;4993201;28;20982;-76
2022/08/17 00:58:15;;;;;;;5.45;3.80;;;20.40;74.30;;;19.66;56.74;96711.16;4993093;28;20466;-76
2022/08/17 01:00:44;;;;;;;8.45;3.85;;;20.40;74.40;;;19.64;56.94;96707.22;4993227;28;20406;-76
2022/08/17 01:03:21;;;;;;;6.57;4.10;;;20.40;74.70;;;19.68;56.93;96717.00;4992669;28;20472;-76
2022/08/17 01:05:49;;;;;;;5.38;3.40;;;20.40;74.60;;;19.66;56.94;96703.09;4993068;28;20407;-76
2022/08/17 01:08:18;;;;;;;7.65;4.30;;;20.40;74.60;;;19.68;56.55;96705.47;4992892;28;20473;-77
2022/08/17 01:10:49;;;;;;;7.90;4.07;;;20.40;74.60;;;19.70;56.43;96704.03;4993005;28;20489;-76
2022/08/17 01:13:16;;;;;;;5.63;3.93;;;20.40;74.60;;;19.66;56.92;96700.44;4992554;28;20399;-76
2022/08/17 01:15:47;;;;;;;7.57;4.10;;;20.30;74.80;;;19.67;56.71;96703.91;4992100;28;20437;-76
2022/08/17 01:18:15;;;;;;;6.60;3.85;;;20.40;74.90;;;19.60;56.73;96703.63;4992846;28;20795;-76
2022/08/17 01:20:47;;;;;;;6.82;4.38;;;20.30;74.90;;;19.48;57.13;96707.00;4992821;28;20434;-75
2022/08/17 01:23:15;;;;;;;7.10;3.90;;;20.30;75.30;;;19.46;57.50;96703.06;4992187;28;20410;-76
2022/08/17 01:25:41;;;;;;;7.13;4.28;;;20.20;76.50;;;19.43;57.70;96701.78;4991414;23;20436;-73
2022/08/17 01:28:08;;;;;;;6.13;4.03;;;20.20;76.10;;;19.45;57.65;96699.59;4973215;28;20416;-73
2022/08/17 01:30:34;;;;;;;6.40;4.10;;;20.20;75.90;;;19.49;57.43;96703.22;4973219;28;20408;-72
2022/08/17 01:33:00;;;;;;;6.72;4.00;;;20.20;75.80;;;19.49;57.26;96699.72;4972730;28;20506;-73
2022/08/17 01:35:26;;;;;;;7.00;4.10;;;20.20;75.70;;;19.36;57.74;96706.88;4985919;28;20468;-73
2022/08/17 01:37:52;;;;;;;8.38;4.32;;;20.10;76.20;;;19.41;57.78;96713.94;4992438;28;20517;-73
2022/08/17 01:40:28;;;;;;;5.80;4.18;;;20.10;76.50;;;19.30;58.11;96708.97;4992467;28;20402;-73
2022/08/17 01:42:57;;;;;;;6.43;4.30;;;20.00;76.70;;;19.25;58.57;96711.03;4991892;28;20465;-73
2022/08/17 01:45:26;;;;;;;6.77;4.60;;;20.00;77.10;;;19.24;58.61;96706.81;4992174;28;20402;-73
2022/08/17 01:47:53;;;;;;;5.68;4.20;;;20.00;77.10;;;19.21;58.86;96715.47;4992312;28;20408;-73
2022/08/17 01:50:24;;;;;;;5.47;4.05;;;20.00;77.50;;;19.20;59.01;96711.22;4992235;28;20417;-73
2022/08/17 01:52:55;;;;;;;6.30;4.37;;;19.90;77.60;;;19.22;59.16;96709.81;4991680;28;20426;-74
2022/08/17 01:55:30;;;;;;;6.88;4.38;;;20.00;77.80;;;19.30;58.71;96713.56;4992041;28;20406;-74
2022/08/17 01:57:57;;;;;;;7.75;4.30;;;20.00;77.60;;;19.26;58.83;96710.72;4991987;28;20492;-73
2022/08/17 02:00:24;;;;;;;8.43;4.82;;;20.00;77.60;;;19.25;58.71;96714.50;4992139;28;20402;-74
2022/08/17 02:02:50;;;;;;;6.68;4.43;;;19.90;77.50;;;19.29;58.74;96718.13;4991530;28;20402;-73
2022/08/17 02:05:17;;;;;;;5.20;4.63;;;20.00;77.90;;;19.17;59.17;96712.66;4991788;28;20405;-73
2022/08/17 02:07:44;;;;;;;8.30;5.30;;;19.90;78.20;;;19.21;59.06;96713.59;4991804;28;20398;-73
2022/08/17 02:10:10;;;;;;;8.88;4.40;;;19.90;78.20;;;19.17;59.25;96714.56;4991885;28;20437;-73
2022/08/17 02:12:38;;;;;;;7.30;4.80;;;19.90;78.50;;;19.24;59.06;96722.91;4991764;28;20403;-73
2022/08/17 02:15:06;;;;;;;5.72;4.50;;;19.90;78.30;;;19.11;59.69;96721.97;4973859;28;20410;-74
2022/08/17 02:17:32;;;;;;;9.43;4.60;;;19.80;78.90;;;19.11;59.97;96716.63;4991584;28;20427;-74
2022/08/17 02:19:58;;;;;;;6.72;4.35;;;19.80;79.10;;;19.16;59.73;96724.50;4991609;28;20482;-73
2022/08/17 02:22:24;;;;;;;6.15;4.60;;;19.90;79.80;;;19.19;59.58;96720.38;4991518;28;20412;-73
2022/08/17 02:24:51;;;;;;;7.20;4.60;;;19.90;79.00;;;19.27;59.21;96722.25;4990995;28;20414;-73
2022/08/17 02:27:17;;;;;;;7.50;4.63;;;20.00;78.80;;;19.25;59.37;96717.19;4990713;28;20411;-73
2022/08/17 02:29:45;;;;;;;7.18;4.70;;;20.00;78.90;;;19.22;59.65;96712.47;4991565;28;20410;-73
2022/08/17 02:32:16;;;;;;;9.00;4.70;;;19.90;79.30;;;19.26;59.36;96718.75;4991483;28;20412;-73
2022/08/17 02:34:42;;;;;;;5.75;4.28;;;19.90;79.10;;;19.09;60.05;96716.19;4990879;28;21043;-73
2022/08/17 02:37:08;;;;;;;6.63;4.60;;;19.80;79.60;;;19.07;60.28;96713.03;4991436;28;20406;-73
2022/08/17 02:39:34;;;;;;;7.97;4.65;;;19.80;80.00;;;19.07;60.43;96712.22;4991357;28;20418;-72
2022/08/17 02:42:01;;;;;;;6.27;4.57;;;19.80;80.20;;;19.09;60.44;96715.38;4991334;28;20415;-72
2022/08/17 02:44:27;;;;;;;5.38;4.70;;;19.80;80.20;;;19.10;60.44;96720.41;4990770;28;20486;-72
2022/08/17 02:46:54;;;;;;;9.37;4.60;;;19.90;80.20;;;19.11;60.43;96713.16;4991268;28;20429;-73
2022/08/17 02:49:20;;;;;;;6.45;4.53;;;19.80;80.20;;;19.10;60.30;96712.34;4991328;28;20828;-73
2022/08/17 02:51:48;;;;;;;7.32;4.85;;;19.80;80.20;;;19.03;60.97;96708.59;4991178;28;20410;-74
2022/08/17 02:54:14;;;;;;;9.93;5.70;;;19.80;80.80;;;19.01;60.80;96717.00;4990662;28;20418;-73
2022/08/17 02:56:40;;;;;;;7.88;4.90;;;19.80;81.00;;;19.03;60.68;96714.75;4991077;28;20434;-73
2022/08/17 02:59:06;;;;;;;8.23;5.10;;;19.80;80.80;;;19.03;60.65;96714.75;4973670;28;20437;-73
2022/08/17 03:01:32;;;;;;;6.63;4.93;;;19.80;81.00;;;19.01;60.72;96705.47;4991127;28;20411;-73
2022/08/17 03:03:59;;;;;;;10.57;5.70;;;19.70;80.90;;;19.01;60.78;96706.25;4990482;28;20421;-73
2022/08/17 03:06:27;;;;;;;6.72;5.25;;;19.70;81.30;;;18.93;61.19;96707.09;4990969;28;20465;-73
2022/08/17 03:08:53;;;;;;;6.60;5.13;;;19.60;81.50;;;18.90;61.09;96713.88;4991111;28;20983;-73
2022/08/17 03:11:19;;;;;;;5.95;4.40;;;19.60;81.70;;;18.86;61.42;96714.84;4991134;28;20410;-74
2022/08/17 03:13:45;;;;;;;7.27;4.47;;;19.60;82.10;;;18.88;61.70;96715.28;4990561;28;20406;-73
2022/08/17 03:16:11;;;;;;;6.50;4.33;;;19.60;82.30;;;18.91;61.51;96720.00;4990934;28;20930;-74
2022/08/17 03:18:37;;;;;;;7.00;4.63;;;19.60;82.20;;;18.92;61.57;96710.88;4990786;28;20852;-73
2022/08/17 03:21:05;;;;;;;6.10;4.47;;;19.70;82.40;;;18.91;61.81;96717.34;4990925;28;20413;-73
2022/08/17 03:23:31;;;;;;;5.57;4.47;;;19.60;82.70;;;18.91;61.81;96720.81;4990374;28;20410;-74
2022/08/17 03:25:58;;;;;;;7.43;5.05;;;19.60;82.50;;;18.92;61.53;96727.75;4990774;28;20965;-74
2022/08/17 03:28:27;;;;;;;5.70;4.50;;;19.60;82.50;;;18.91;61.64;96730.75;4990848;28;20402;-73
2022/08/17 03:30:53;;;;;;;11.38;4.75;;;19.60;82.70;;;19.01;61.27;96735.78;4990952;28;20895;-73
2022/08/17 03:33:19;;;;;;;6.97;4.43;;;19.70;82.60;;;18.91;61.86;96742.25;4990389;28;20572;-73
2022/08/17 03:35:45;;;;;;;9.98;4.70;;;19.60;82.80;;;18.90;61.78;96737.22;4990584;28;20438;-73
2022/08/17 03:38:13;;;;;;;7.45;4.72;;;19.60;83.10;;;18.88;61.88;96740.19;4991894;28;20418;-74
2022/08/17 03:40:39;;;;;;;7.45;4.60;;;19.60;83.20;;;18.91;61.51;96744.16;4994567;28;20767;-74
2022/08/17 03:43:08;;;;;;;7.53;4.18;;;19.60;82.90;;;18.81;62.07;96752.53;4994176;28;20406;-74
2022/08/17 03:57:03;;;;;;;5.95;4.28;;;19.50;83.70;;;18.77;61.91;96748.91;4924333;28;20433;-74
2022/08/17 03:59:30;;;;;;;8.55;4.80;;;19.50;83.90;;;18.77;61.72;96744.34;4976666;28;20418;-74
2022/08/17 04:02:00;;;;;;;5.57;4.18;;;19.50;84.00;;;18.72;62.01;96752.53;4994347;28;20414;-74
2022/08/17 04:04:26;;;;;;;6.80;4.43;;;19.40;83.90;;;18.77;61.70;96749.72;4993462;28;20460;-74
2022/08/17 04:06:52;;;;;;;8.68;4.72;;;19.50;83.60;;;18.77;61.43;96754.28;4994127;28;20402;-74
2022/08/17 04:09:19;;;;;;;8.80;4.25;;;19.50;83.30;;;18.79;61.21;96750.19;4994201;28;20408;-74
2022/08/17 04:11:46;;;;;;;5.93;4.30;;;19.50;82.90;;;18.82;61.04;96743.38;4993983;28;20924;-74
2022/08/17 04:14:12;;;;;;;6.55;4.43;;;19.50;82.70;;;18.80;61.47;96742.91;4993470;28;20438;-73
2022/08/17 04:16:38;;;;;;;5.60;4.70;;;19.50;83.00;;;18.80;61.72;96745.59;4993934;28;20410;-73
2022/08/17 04:19:04;;;;;;;7.55;5.05;;;19.50;83.30;;;18.80;61.75;96750.94;4993898;28;20430;-73
2022/08/17 04:21:31;;;;;;;8.25;5.10;;;19.50;83.40;;;18.76;62.07;96761.53;4994034;28;20406;-73
2022/08/17 04:23:57;;;;;;;6.03;4.95;;;19.50;83.70;;;18.77;61.78;96765.00;4993231;28;20409;-74
2022/08/17 04:26:24;;;;;;;7.95;5.47;;;19.50;83.60;;;18.77;61.75;96770.38;4993823;28;20410;-74
2022/08/17 04:28:50;;;;;;;8.52;5.32;;;19.50;83.60;;;18.81;60.77;96768.63;4976323;28;20776;-73
2022/08/17 04:31:16;;;;;;;8.10;4.70;;;19.50;82.70;;;18.73;61.16;96767.53;4993631;28;20414;-73
2022/08/17 04:33:43;;;;;;;10.30;5.10;;;19.50;83.00;;;18.73;61.45;96769.41;4993153;28;20426;-73
2022/08/17 04:36:11;;;;;;;7.68;4.80;;;19.40;83.40;;;18.73;61.51;96774.78;4993551;28;20414;-73
2022/08/17 04:38:40;;;;;;;7.45;5.32;;;19.50;83.30;;;18.70;61.70;96778.91;4993442;28;20565;-73
2022/08/17 04:43:57;;;;;;;7.45;5.07;;;19.40;83.60;;;18.66;61.51;96777.94;4993064;28;20406;-73
2022/08/17 04:46:25;;;;;;;11.25;5.28;;;19.40;83.50;;;18.67;61.24;96784.88;4993508;28;20414;-73
2022/08/17 04:48:55;;;;;;;10.77;5.30;;;19.40;83.40;;;18.62;61.53;96798.47;4993109;28;20473;-73
2022/08/17 04:51:26;;;;;;;7.93;4.78;;;19.30;83.70;;;18.57;61.77;96805.88;4992633;28;20888;-74
2022/08/17 04:53:56;;;;;;;6.45;4.65;;;19.30;84.00;;;18.59;61.81;96803.66;4992828;28;20399;-73
2022/08/17 04:56:24;;;;;;;5.90;4.32;;;19.30;84.30;;;18.58;62.28;96804.75;4993278;28;20473;-73
2022/08/17 04:58:56;;;;;;;6.38;4.68;;;19.30;84.60;;;18.62;61.92;96797.69;4993173;28;20421;-73
2022/08/17 05:01:26;;;;;;;7.78;5.00;;;19.30;84.30;;;18.62;62.22;96795.78;4993281;28;20402;-74
2022/08/17 05:03:54;;;;;;;5.95;4.60;;;19.40;84.70;;;18.67;62.33;96803.66;4992525;28;20426;-73
2022/08/17 05:06:22;;;;;;;5.95;4.68;;;19.40;85.00;;;18.68;62.52;96802.56;4993188;28;20410;-73
2022/08/17 05:08:48;;;;;;;7.93;4.82;;;19.40;85.20;;;18.74;62.35;96805.84;4993112;28;20402;-73
2022/08/17 05:11:14;;;;;;;5.75;4.57;;;19.40;85.10;;;18.72;62.24;96800.81;4993019;28;20414;-73
2022/08/17 05:13:40;;;;;;;7.32;5.03;;;19.40;85.00;;;18.76;62.50;96800.97;4992569;28;20413;-74
2022/08/17 05:16:08;;;;;;;7.63;4.97;;;19.50;85.10;;;18.80;62.24;96808.06;4992895;28;20476;-74
2022/08/17 05:18:35;;;;;;;8.45;4.85;;;19.50;84.80;;;18.82;62.61;96802.38;4992765;28;20513;-73
2022/08/17 05:21:01;;;;;;;6.87;4.70;;;19.50;85.40;;;18.86;62.42;96803.34;4992783;28;20459;-73
2022/08/17 05:23:28;;;;;;;5.57;4.37;;;19.50;85.30;;;18.91;61.91;96797.78;4992255;28;20410;-73
2022/08/17 05:25:55;;;;;;;9.70;4.93;;;19.60;84.70;;;18.98;61.28;96797.31;4992576;28;20410;-73
2022/08/17 05:28:24;;;;;;;5.82;4.30;;;19.60;84.00;;;18.99;61.77;96801.56;4992747;28;20405;-73
2022/08/17 05:30:50;;;;;;;8.13;4.68;;;19.60;84.40;;;19.09;61.65;96801.22;4992724;28;20399;-73
2022/08/17 05:33:21;;;;;;;7.57;4.00;;;19.80;85.30;;;19.18;61.97;96794.72;4992154;28;20410;-74
2022/08/17 05:35:53;;;;;;;6.05;4.50;;;19.80;84.60;;;19.30;62.41;96796.75;4975046;28;20438;-74
2022/08/17 05:38:21;;;;;;;8.55;4.55;;;19.90;86.10;;;19.39;62.75;96802.09;4992350;28;20426;-73
2022/08/17 05:40:48;;;;;;;7.67;4.77;;;20.00;85.90;;;19.47;62.41;96806.66;4992513;28;20421;-73
2022/08/17 05:43:18;;;;;;;7.18;4.95;;;20.10;85.90;;;19.53;62.28;96800.78;4974561;28;20505;-73
2022/08/17 05:45:51;;;;;;;6.93;4.78;;;20.20;85.50;;;19.58;62.37;96803.28;4992194;28;20749;-73
2022/08/17 05:48:18;;;;;;;7.25;4.70;;;20.20;85.70;;;19.64;62.91;96804.69;4992210;28;20403;-74
2022/08/17 05:50:53;;;;;;;6.25;4.03;;;20.30;86.30;;;19.70;63.25;96803.38;4992255;28;20476;-74
2022/08/17 05:53:27;;;;;;;9.15;4.82;;;20.40;86.80;;;19.78;62.21;96812.50;4991811;28;20395;-74
2022/08/17 05:56:09;;;;;;;11.97;5.50;;;20.40;85.70;;;19.84;61.62;96808.53;4992057;28;20836;-74
2022/08/17 05:58:47;;;;;;;9.70;5.43;;;20.50;84.90;;;19.91;60.77;96813.41;4992188;28;20429;-73
2022/08/17 06:01:28;;;;;;;11.20;6.25;;;20.50;83.80;;;19.97;60.44;96817.47;4991811;28;20398;-73
2022/08/17 06:04:11;;;;;;;13.60;5.55;;;20.60;83.10;;;20.01;60.43;96819.16;4991490;28;20444;-73
2022/08/17 06:06:43;;;;;;;12.13;5.43;;;20.60;82.90;;;20.05;60.61;96817.41;4992016;28;20399;-73
2022/08/17 06:09:33;;;;;;;11.38;5.43;;;20.70;83.10;;;20.10;60.91;96835.25;4991986;28;20533;-72
2022/08/17 06:12:12;;;;;;;13.65;5.63;;;20.70;83.90;;;20.15;61.37;96842.34;4991918;28;20430;-72
2022/08/17 06:15:02;;;;;;;10.95;5.80;;;20.80;84.40;;;20.16;61.01;96843.91;4991356;28;21083;-72
2022/08/17 06:17:29;;;;;;;9.65;5.68;;;20.80;84.10;;;20.17;61.56;96838.19;4991964;28;20788;-72
2022/08/17 06:20:03;;;;;;;11.85;5.68;;;20.80;84.60;;;20.20;62.02;96842.94;4991646;28;21009;-72
2022/08/17 06:22:33;;;;;;;10.52;5.65;;;20.80;85.20;;;20.23;61.78;96846.84;4991699;28;20893;-73
2022/08/17 06:25:05;;;;;;;9.88;5.72;;;20.90;85.10;;;20.30;61.92;96852.50;4991069;28;20414;-72
2022/08/17 06:27:37;;;;;;;15.07;5.80;;;20.90;85.10;;;20.34;61.29;96853.47;4991522;28;20876;-72
2022/08/17 06:30:11;;;;;;;12.85;6.20;;;21.00;84.70;;;20.42;61.40;96844.56;4991526;28;20410;-72
2022/08/17 06:32:41;;;;;;;14.20;6.43;;;21.00;84.60;;;20.50;60.84;96838.34;4991570;28;20446;-72
2022/08/17 06:35:14;;;;;;;12.98;5.88;;;21.10;83.90;;;20.56;60.00;96847.78;4991276;28;20414;-72
2022/08/17 06:37:58;;;;;;;10.50;5.65;;;21.10;82.80;;;20.62;59.53;96851.84;4991312;28;20414;-73
2022/08/17 06:41:02;;;;;;;13.75;5.93;;;21.20;82.10;;;20.69;59.38;96864.75;4991408;28;20406;-72
2022/08/17 06:43:45;;;;;;;12.23;6.07;;;21.30;81.90;;;20.76;58.81;96881.94;4983671;28;20430;-72
2022/08/17 06:46:20;;;;;;;17.08;5.95;;;21.30;81.00;;;20.83;58.53;96873.34;4991326;28;20411;-72
2022/08/17 06:48:56;;;;;;;11.20;5.63;;;21.40;81.30;;;20.92;58.78;96890.19;4991404;28;20541;-72
2022/08/17 06:51:32;;;;;;;13.52;5.63;;;21.50;80.80;;;21.01;58.90;96873.97;4991283;28;20493;-72
2022/08/17 06:54:04;;;;;;;13.05;5.90;;;21.50;80.80;;;21.10;58.58;96856.66;4990713;28;20406;-72
2022/08/17 06:56:38;;;;;;;13.32;5.95;;;21.70;80.70;;;21.20;58.31;96850.84;4991202;28;20399;-72
2022/08/17 06:59:07;;;;;;;9.63;5.20;;;21.80;80.20;;;21.32;58.32;96858.19;4991124;28;20426;-72
2022/08/17 07:01:37;;;;;;;9.00;5.40;;;21.90;80.30;;;21.43;57.79;96845.06;4991160;28;20403;-71
2022/08/17 07:04:12;;;;;;;7.93;4.93;;;22.00;79.70;;;21.56;57.80;96838.59;4973067;28;20414;-73
2022/08/17 07:06:46;;;;;;;8.65;5.45;;;22.10;79.20;;;21.69;57.01;96847.47;4991027;28;20401;-71
2022/08/17 07:09:22;;;;;;;11.70;4.57;;;22.20;78.70;;;21.80;56.64;96854.00;4991067;28;20842;-71
2022/08/17 07:11:51;;;;;;;9.80;5.00;;;22.40;77.80;;;21.87;56.52;96844.25;4991026;28;20406;-73
2022/08/17 07:14:35;;;;;;;12.10;5.93;;;22.40;77.50;;;21.93;55.94;96837.50;4993491;28;20466;-72
2022/08/17 07:17:06;;;;;;;9.25;5.43;;;22.50;76.90;;;21.99;55.98;96854.25;4995074;28;20400;-72
2022/08/17 07:19:39;;;;;;;8.43;5.50;;;22.50;76.80;;;22.03;56.24;96847.06;4995153;28;20427;-73
2022/08/17 07:22:21;;;;;;;15.60;6.20;;;22.50;76.90;;;22.06;54.12;96848.28;4994981;28;20429;-71
2022/08/17 07:24:51;;;;;;;12.77;5.97;;;22.60;74.50;;;22.13;54.17;96841.22;5004409;23;20856;-73
2022/08/17 07:27:20;;;;;;;13.85;5.68;;;22.70;74.20;;;22.18;53.66;96845.59;4973125;28;20415;-73
2022/08/17 07:29:52;;;;;;;10.40;5.50;;;22.70;73.60;;;22.24;53.92;96842.34;4975263;28;20400;-73
2022/08/17 07:32:24;;;;;;;13.15;5.20;;;22.70;73.90;;;22.30;53.89;96842.88;4975327;28;20436;-73
2022/08/17 07:35:21;;;;;;;7.93;4.90;;;22.80;73.90;;;22.38;53.57;96847.38;4979703;28;21039;-73
2022/08/17 07:38:06;;;;;;;13.18;5.47;;;22.90;73.30;;;22.43;53.64;96849.81;4961521;28;20486;-73
2022/08/17 07:40:35;;;;;;;15.15;5.70;;;22.90;73.00;;;22.50;52.66;96857.34;4994720;28;20877;-73
2022/08/17 07:43:19;;;;;;;14.95;6.38;;;23.00;72.20;;;22.56;51.39;96856.75;4976609;28;20530;-73
2022/08/17 07:49:19;;;;;;;8.03;5.13;;;23.10;71.50;;;22.73;52.11;96853.81;4994458;28;20909;-73
2022/08/17 07:52:06;;;;;;;12.57;5.37;;;23.20;71.10;;;22.83;51.93;96863.34;4994390;28;20837;-74
2022/08/17 07:54:37;;;;;;;10.77;5.30;;;23.30;71.00;;;22.87;52.30;96860.75;4993822;28;20399;-73
2022/08/17 07:57:35;;;;;;;8.43;4.80;;;23.40;71.20;;;22.92;52.83;96869.41;4976790;28;20900;-73
2022/08/17 08:00:18;;;;;;;10.00;4.43;;;23.40;71.70;;;22.92;52.81;96868.63;4992815;28;20518;-74
2022/08/17 08:02:58;;;;;;;8.35;4.43;;;23.40;71.70;;;22.93;52.46;96879.03;4993985;28;20409;-73
2022/08/17 08:05:27;;;;;;;7.07;4.43;;;23.40;71.40;;;22.94;52.75;96874.44;4994011;28;20409;-74
2022/08/17 08:07:56;;;;;;;9.57;4.60;;;23.40;71.50;;;22.93;52.85;96884.44;4994225;28;20783;-74
2022/08/17 08:10:32;;;;;;;8.38;4.55;;;23.40;71.80;;;22.91;52.97;96889.41;4992922;28;20422;-74
2022/08/17 08:13:08;;;;;;;8.02;4.85;;;23.40;71.90;;;22.91;52.40;96888.63;4993752;28;20833;-73
2022/08/17 08:15:38;;;;;;;7.60;4.70;;;23.40;71.00;;;22.90;52.78;96879.75;4993763;28;20485;-74
2022/08/17 08:18:21;;;;;;;10.57;4.88;;;23.40;71.60;;;22.94;53.08;96887.94;4993998;28;20426;-73
2022/08/17 08:20:52;;;;;;;9.68;4.47;;;23.50;72.10;;;22.97;53.09;96892.66;4993897;28;20402;-73
2022/08/17 08:23:36;;;;;;;6.57;4.65;;;23.50;71.90;;;23.01;52.70;96897.00;4993670;28;20402;-74
2022/08/17 08:26:19;;;;;;;7.73;4.43;;;23.50;71.50;;;23.07;51.73;96889.47;4993635;28;20501;-73
2022/08/17 08:28:55;;;;;;;6.70;4.50;;;23.50;70.20;;;23.11;51.44;96893.84;4993717;28;20986;-73
2022/08/17 08:31:32;;;;;;;9.32;4.03;;;23.60;69.90;;;23.17;51.84;96899.75;4993766;28;20530;-74
2022/08/17 08:34:11;;;;;;;6.90;4.55;;;23.70;70.40;;;23.20;50.69;96891.00;4993328;28;20482;-74
2022/08/17 08:36:49;;;;;;;11.18;4.55;;;23.70;69.00;;;23.20;50.09;96896.38;4993626;28;20413;-73
2022/08/17 08:39:22;;;;;;;7.35;4.32;;;23.70;68.20;;;23.23;49.62;96909.19;4993612;28;20457;-74
2022/08/17 08:42:07;;;;;;;5.38;3.80;;;23.70;67.90;;;23.26;50.63;96903.09;4993555;28;20837;-74
2022/08/17 08:44:55;;;;;;;8.00;3.72;;;23.70;68.40;;;23.28;50.17;96913.56;4993022;28;20481;-74
2022/08/17 08:47:40;;;;;;;10.00;4.00;;;23.70;68.20;;;23.33;48.84;96913.31;4993586;28;20414;-73
2022/08/17 08:50:19;;;;;;;8.25;4.15;;;23.80;66.70;;;23.31;48.94;96927.16;4993464;28;20398;-74
2022/08/17 08:53:07;;;;;;;5.68;4.15;;;23.80;66.50;;;23.31;49.79;96920.97;4993126;28;20865;-73
2022/08/17 08:55:50;;;;;;;7.68;4.32;;;23.80;67.40;;;23.29;50.25;96917.84;4993176;28;20411;-73
2022/08/17 08:58:29;;;;;;;7.35;4.18;;;23.80;67.90;;;23.27;51.06;96923.59;4993093;28;20517;-73
2022/08/17 09:00:59;;;;;;;6.10;3.47;;;23.80;68.90;;;23.28;51.15;96924.38;4993213;28;20888;-73
2022/08/17 09:04:05;;;;;;;6.68;3.65;;;23.80;69.20;;;23.28;50.91;96917.06;4992553;28;20438;-73
2022/08/17 09:06:44;;;;;;;6.15;3.90;;;23.80;68.80;;;23.28;51.83;96913.56;4992261;28;20427;-74
2022/08/17 09:09:28;;;;;;;10.13;4.15;;;23.80;69.80;;;23.28;52.79;96917.06;4993085;28;20422;-73
2022/08/17 09:12:04;;;;;;;9.52;4.28;;;23.80;70.90;;;23.28;52.97;96927.06;4993039;28;20944;-74
2022/08/17 09:14:37;;;;;;;9.57;4.85;;;23.80;71.10;;;23.22;51.64;96909.56;4992506;28;20397;-73
2022/08/17 09:17:11;;;;;;;7.72;4.30;;;23.70;69.50;;;23.21;51.51;96919.56;4992910;28;20406;-74
2022/08/17 09:19:43;;;;;;;8.60;4.78;;;23.70;69.50;;;23.16;51.85;96917.88;4992657;28;20418;-73
2022/08/17 09:22:30;;;;;;;7.03;4.50;;;23.60;69.90;;;23.16;52.98;96912.47;4992873;28;20406;-74
2022/08/17 09:25:06;;;;;;;8.48;4.63;;;23.70;71.30;;;23.32;55.30;96926.03;4992071;28;20413;-73
2022/08/17 09:27:46;;;;;;;7.50;4.55;;;23.70;74.40;;;23.29;55.87;96945.66;4992711;28;20398;-73
2022/08/17 09:30:14;;;;;;;6.30;3.97;;;23.80;74.90;;;23.32;53.02;96957.66;4992730;28;20750;-73
2022/08/17 09:32:44;;;;;;;8.50;3.97;;;23.70;71.30;;;23.35;49.43;96955.06;4992436;28;20510;-73
2022/08/17 09:35:19;;;;;;;5.72;3.85;;;23.80;67.90;;;23.18;49.15;96947.25;4992145;28;20406;-73
2022/08/17 09:37:59;;;;;;;5.22;3.47;;;23.70;66.60;;;23.10;50.86;96950.88;4992380;28;20764;-73
2022/08/17 09:40:32;;;;;;;6.28;4.13;;;23.60;68.30;;;23.00;50.54;96943.28;4992424;28;20406;-73
2022/08/17 09:43:05;;;;;;;10.07;3.50;;;23.50;68.20;;;23.02;51.39;96947.19;4992087;28;20394;-73
2022/08/17 09:45:41;;;;;;;9.75;4.07;;;23.50;69.00;;;22.99;49.16;96936.28;4992291;28;20482;-73
2022/08/17 09:48:17;;;;;;;9.70;3.80;;;23.50;66.70;;;22.95;49.14;96935.41;4992279;28;20489;-73
2022/08/17 09:50:54;;;;;;;8.45;4.03;;;23.50;66.50;;;22.94;49.16;96925.72;4992247;28;20442;-73
2022/08/17 09:53:21;;;;;;;3.83;3.15;;;23.50;66.40;;;22.93;50.64;96924.16;4991942;28;20481;-73
2022/08/17 09:56:08;;;;;;;6.22;3.65;;;23.50;68.20;;;22.95;51.42;96941.56;4992036;28;20807;-74
2022/08/17 09:59:07;;;;;;;6.13;3.58;;;23.50;69.30;;;22.97;53.96;96949.34;4992049;28;20473;-73
2022/08/17 10:01:41;;;;;;;6.43;4.03;;;23.50;72.00;;;22.90;57.46;96951.84;4992103;28;20429;-73
2022/08/17 10:04:39;;;;;;;4.57;3.67;;;23.40;76.30;;;22.81;60.58;96943.06;4991525;28;20410;-73
2022/08/17 10:07:14;;;;;;;10.00;3.93;;;23.40;79.40;;;22.72;61.30;96940.47;4988463;28;20472;-72
2022/08/17 10:09:58;;;;;;;8.20;4.00;;;23.30;81.70;;;22.63;62.25;96946.00;4991785;28;20403;-73
2022/08/17 10:12:37;;;;;;;7.07;4.65;;;23.20;83.40;;;22.54;61.67;96950.75;4991942;28;20403;-73
2022/08/17 10:15:15;;;;;;;6.60;3.97;;;23.10;83.20;;;22.51;62.74;96942.53;4991431;28;20903;-73
2022/08/17 10:17:56;;;;;;;5.90;4.43;;;23.10;84.50;;;22.51;64.93;96948.72;4974397;28;20469;-73
2022/08/17 10:20:28;;;;;;;6.38;4.35;;;23.10;88.00;;;22.50;65.39;96957.94;4991703;28;20506;-73
2022/08/17 10:28:37;;;;;;;8.90;4.88;;;23.10;90.90;;;22.50;66.15;96965.22;4991636;28;20450;-74
2022/08/17 10:31:08;;;;;;;8.77;4.65;;;23.00;91.10;;;22.51;66.12;96966.81;4991493;28;20404;-73
2022/08/17 10:33:48;;;;;;;7.73;4.30;;;23.10;91.40;;;22.50;66.18;96971.41;4991099;28;20398;-73
2022/08/17 10:36:22;;;;;;;9.50;4.63;;;23.10;91.50;;;22.48;63.18;96976.34;4991485;28;20450;-74
2022/08/17 10:39:03;;;;;;;5.43;3.80;;;23.10;89.60;;;22.44;59.04;96980.06;4991358;28;20433;-73
2022/08/17 10:41:39;;;;;;;5.78;3.45;;;23.00;82.40;;;22.44;60.35;96985.47;4991341;28;20394;-73
2022/08/17 10:44:12;;;;;;;5.15;3.70;;;23.00;83.90;;;22.43;61.00;96986.59;4973475;28;20398;-73
2022/08/17 10:47:00;;;;;;;7.23;4.00;;;23.00;84.80;;;22.43;62.59;96989.28;4991273;28;20406;-74
2022/08/17 10:49:32;;;;;;;4.00;3.60;;;23.00;86.80;;;22.44;64.03;97009.75;4990888;28;20812;-73
2022/08/17 10:52:03;;;;;;;45.97;7.90;;;23.00;89.20;;;22.32;73.41;97016.72;4991337;28;20414;-74
2022/08/17 10:54:46;;;;;;;20.83;8.40;;;23.00;97.90;;;21.94;82.74;97014.25;4990652;28;20414;-74
2022/08/17 10:57:36;;;;;;;26.85;8.80;;;22.60;99.90;;;21.52;88.80;97024.31;4973759;28;20498;-74
2022/08/17 11:00:13;;;;;;;28.33;10.70;;;22.20;99.90;;;21.16;92.22;97013.34;4991135;28;20418;-74
2022/08/17 11:02:48;;;;;;;22.27;10.38;;;21.80;99.90;;;20.90;98.46;97023.50;4990905;28;20409;-74